Terminal Aerodrome Forecast
Issued by NWS

Home | Current Version | Previous Version | Graphics & Text | Print | Product List | Glossary Off
Versions: 1 2 3 4 5 6 7 8 9 10 11 12 13 14

000
FTUS43 KDDC 231137
TAFHYS
TAF
KHYS 231137Z 2312/2412 36004KT P6SM FEW200
     FM231500 02008KT P6SM FEW200
     FM231800 05009KT P6SM SKC
     FM240100 09006KT P6SM SKC=

USA.gov is the U.S. government's official web portal to all federal, state and local government web resources and services.